Time;durP1;ratioP1;P1;durP2;ratioP2;P2;SDS_P1;SDS_P2;PMS_P1;PMS_P2;Temp;Humidity;BMP_temperature;BMP_pressure;BME280_temperature;BME280_humidity;BME280_pressure;Samples;Min_cycle;Max_cycle;Signal;HPM_P1;HPM_P2
2022/10/20 00:01:35;;;;;;;40.55;21.00;;;26.50;99.90;;;;;;4994100;28;20054;-60
2022/10/20 00:04:02;;;;;;;35.00;20.15;;;26.40;99.90;;;;;;4994155;28;20019;-58
2022/10/20 00:06:31;;;;;;;37.50;21.95;;;26.50;99.90;;;;;;4993694;28;20360;-59
2022/10/20 00:09:00;;;;;;;38.58;23.42;;;26.50;99.90;;;;;;4994001;28;20036;-61
2022/10/20 00:11:28;;;;;;;38.85;22.30;;;26.60;99.90;;;;;;4994626;28;20018;-59
2022/10/20 00:13:56;;;;;;;38.35;21.17;;;26.60;99.90;;;;;;4993767;28;20431;-59
2022/10/20 00:16:24;;;;;;;32.90;21.58;;;26.60;99.90;;;;;;4993993;28;20022;-60
2022/10/20 00:18:51;;;;;;;42.97;22.48;;;26.50;99.90;;;;;;4994039;28;20022;-59
2022/10/20 00:21:20;;;;;;;40.33;23.95;;;26.50;99.90;;;;;;4993785;28;20033;-58
2022/10/20 00:23:47;;;;;;;103.63;62.30;;;26.60;99.90;;;;;;4993835;28;20062;-58
2022/10/20 00:26:18;;;;;;;43.78;22.95;;;26.70;99.90;;;;;;4993882;28;20053;-61
2022/10/20 00:28:45;;;;;;;50.38;24.33;;;26.70;99.90;;;;;;4993976;28;20379;-59
2022/10/20 00:31:12;;;;;;;41.20;22.15;;;26.80;99.90;;;;;;4994069;28;20050;-62
2022/10/20 00:33:39;;;;;;;42.95;24.73;;;26.80;99.90;;;;;;4994070;28;20360;-60
2022/10/20 00:36:10;;;;;;;46.85;25.27;;;26.70;99.90;;;;;;4994902;28;20026;-59
2022/10/20 00:38:36;;;;;;;32.72;19.42;;;26.70;99.90;;;;;;5002192;28;20053;-60
2022/10/20 00:41:03;;;;;;;35.10;19.55;;;26.60;99.90;;;;;;5017533;28;20364;-59
2022/10/20 00:43:35;;;;;;;35.60;17.85;;;26.50;99.90;;;;;;5017457;28;20479;-61
2022/10/20 00:46:01;;;;;;;37.17;22.13;;;26.50;99.90;;;;;;5017258;28;20022;-60
2022/10/20 00:48:30;;;;;;;72.70;47.95;;;26.60;99.90;;;;;;5017221;28;20079;-63
2022/10/20 00:50:57;;;;;;;34.95;20.48;;;26.70;99.90;;;;;;5017068;28;20502;-60
2022/10/20 00:53:27;;;;;;;23.27;15.15;;;26.80;99.90;;;;;;5017182;28;20018;-61
2022/10/20 00:55:56;;;;;;;27.38;13.23;;;26.80;99.90;;;;;;5002852;28;20356;-62
2022/10/20 00:58:24;;;;;;;22.45;12.27;;;26.80;99.90;;;;;;4997371;28;20474;-61
2022/10/20 01:00:55;;;;;;;28.13;14.55;;;26.90;99.90;;;;;;5004738;28;20029;-56
2022/10/20 01:03:45;;;;;;;20.75;12.38;;;26.90;99.90;;;;;;5016830;28;20014;-59
2022/10/20 01:06:14;;;;;;;24.15;14.07;;;27.00;99.90;;;;;;5016884;28;20540;-58
2022/10/20 01:08:41;;;;;;;28.85;14.57;;;27.20;99.90;;;;;;5016818;28;20500;-60
2022/10/20 01:11:15;;;;;;;21.98;11.90;;;27.20;99.90;;;;;;5016844;28;20072;-60
2022/10/20 01:13:49;;;;;;;21.80;10.90;;;27.40;99.90;;;;;;5016960;28;20025;-60
2022/10/20 01:16:22;;;;;;;17.50;9.65;;;27.30;99.90;;;;;;5016910;28;20056;-60
2022/10/20 01:18:52;;;;;;;17.88;9.10;;;27.30;99.90;;;;;;5017473;28;20022;-60
2022/10/20 01:21:28;;;;;;;19.40;9.77;;;27.30;99.90;;;;;;5017408;28;20044;-60
2022/10/20 01:24:00;;;;;;;13.00;8.18;;;27.40;99.90;;;;;;5018093;28;20474;-62
2022/10/20 01:26:28;;;;;;;17.25;9.55;;;27.40;99.90;;;;;;5017592;28;20038;-60
2022/10/20 01:28:57;;;;;;;14.63;8.80;;;27.50;99.90;;;;;;5018031;28;20105;-61
2022/10/20 01:31:33;;;;;;;12.27;8.18;;;27.50;99.90;;;;;;5017636;28;20030;-61
2022/10/20 01:34:02;;;;;;;15.43;9.13;;;27.60;99.90;;;;;;5017242;28;20037;-62
2022/10/20 01:36:39;;;;;;;16.38;8.80;;;27.70;99.90;;;;;;5017030;28;20536;-58
2022/10/20 01:39:15;;;;;;;13.35;8.23;;;27.80;99.90;;;;;;5017350;28;20018;-62
2022/10/20 01:41:48;;;;;;;25.00;18.13;;;27.90;99.90;;;;;;5017129;28;20391;-60
2022/10/20 01:44:17;;;;;;;14.20;7.80;;;28.00;99.90;;;;;;5017278;28;20022;-61
2022/10/20 01:46:44;;;;;;;14.13;8.07;;;28.00;99.90;;;;;;5016714;28;20026;-60
2022/10/20 01:49:12;;;;;;;14.43;8.65;;;28.30;99.90;;;;;;5015480;28;20395;-62
2022/10/20 01:51:40;;;;;;;444.17;323.83;;;28.40;99.90;;;;;;5015415;28;20038;-65
2022/10/20 01:54:06;;;;;;;16.60;10.25;;;28.50;99.90;;;;;;5016288;28;20070;-62
2022/10/20 01:56:50;;;;;;;18.42;8.68;;;28.50;99.90;;;;;;5015979;28;20482;-59
2022/10/20 01:59:20;;;;;;;14.63;9.43;;;28.50;99.90;;;;;;5015787;28;20033;-61
2022/10/20 02:01:52;;;;;;;16.73;9.32;;;28.50;99.90;;;;;;5015959;28;20378;-62
2022/10/20 02:04:27;;;;;;;12.20;7.75;;;28.60;99.90;;;;;;5015704;28;20022;-61
2022/10/20 02:07:01;;;;;;;12.02;8.07;;;28.70;99.90;;;;;;5015859;28;20490;-61
2022/10/20 02:09:38;;;;;;;17.00;8.95;;;28.70;99.90;;;;;;5015725;28;20036;-61
2022/10/20 02:12:12;;;;;;;16.23;9.15;;;28.70;99.90;;;;;;5015595;28;20022;-61
2022/10/20 02:14:40;;;;;;;15.57;8.82;;;28.80;99.90;;;;;;5015537;28;20108;-61
2022/10/20 02:17:13;;;;;;;8.98;7.38;;;28.90;99.90;;;;;;5015444;28;20072;-61
2022/10/20 02:19:43;;;;;;;15.30;9.18;;;28.80;99.90;;;;;;5015615;28;20041;-61
2022/10/20 02:22:12;;;;;;;10.77;7.88;;;28.80;99.90;;;;;;5015420;28;20071;-61
2022/10/20 02:24:41;;;;;;;7.90;6.63;;;28.90;99.90;;;;;;5015648;28;20026;-62
2022/10/20 02:27:14;;;;;;;9.55;7.63;;;29.00;99.90;;;;;;5015197;28;20513;-61
2022/10/20 02:29:56;;;;;;;14.15;7.68;;;29.00;99.90;;;;;;5010436;28;20030;-61
2022/10/20 02:32:23;;;;;;;;;;;29.00;99.90;;;;;;5005769;28;20021;-61
2022/10/20 02:34:50;;;;;;;17.23;7.07;;;29.10;99.90;;;;;;5015203;28;19909;-62
2022/10/20 02:37:16;;;;;;;14.23;6.80;;;29.40;99.90;;;;;;5006486;28;20108;-61
2022/10/20 02:39:43;;;;;;;10.45;6.10;;;29.30;99.90;;;;;;5015181;28;20025;-62
2022/10/20 02:42:11;;;;;;;8.88;6.30;;;29.30;99.90;;;;;;5015078;28;20014;-62
2022/10/20 02:44:37;;;;;;;11.57;6.38;;;29.40;99.90;;;;;;5015008;28;20036;-61
2022/10/20 02:47:04;;;;;;;10.73;6.65;;;29.40;99.90;;;;;;5015036;28;20028;-61
2022/10/20 02:49:31;;;;;;;12.35;7.13;;;29.40;99.90;;;;;;5015019;28;20018;-61
2022/10/20 02:51:57;;;;;;;11.88;6.68;;;29.50;99.90;;;;;;5014707;28;20038;-61
2022/10/20 02:54:26;;;;;;;17.60;11.75;;;29.60;99.90;;;;;;5014828;28;20076;-61
2022/10/20 02:56:52;;;;;;;38.03;25.10;;;29.60;99.90;;;;;;5014832;28;20536;-61
2022/10/20 02:59:19;;;;;;;25.50;18.52;;;29.70;99.90;;;;;;5015567;28;20017;-61
2022/10/20 03:01:46;;;;;;;11.18;9.07;;;29.70;99.90;;;;;;5014537;28;20026;-61
2022/10/20 03:04:13;;;;;;;9.80;6.60;;;29.80;99.90;;;;;;5014564;28;20030;-61
2022/10/20 03:06:40;;;;;;;11.02;7.97;;;29.80;99.90;;;;;;5014442;28;20510;-60
2022/10/20 03:09:07;;;;;;;26.67;13.05;;;29.80;99.90;;;;;;5014663;28;20434;-61
2022/10/20 03:11:34;;;;;;;35.75;27.35;;;29.70;99.90;;;;;;5014511;28;20026;-61
2022/10/20 03:14:00;;;;;;;53.45;47.42;;;29.70;99.90;;;;;;5014251;28;20018;-61
2022/10/20 03:16:27;;;;;;;10.10;7.57;;;29.80;99.90;;;;;;5014513;28;20029;-60
2022/10/20 03:18:53;;;;;;;10.98;6.20;;;29.80;99.90;;;;;;5014417;28;20064;-60
2022/10/20 03:21:20;;;;;;;10.10;6.40;;;29.70;99.90;;;;;;5014338;28;20387;-61
2022/10/20 03:23:48;;;;;;;17.67;9.40;;;29.70;99.90;;;;;;5014678;28;20021;-61
2022/10/20 03:26:14;;;;;;;9.48;6.90;;;29.80;99.90;;;;;;5014294;28;20022;-61
2022/10/20 03:28:41;;;;;;;9.55;7.00;;;29.90;99.90;;;;;;5014054;28;20025;-60
2022/10/20 03:31:08;;;;;;;10.25;6.53;;;30.00;99.90;;;;;;5014201;28;20418;-60
2022/10/20 03:33:35;;;;;;;9.73;7.03;;;30.20;99.90;;;;;;5014072;28;20049;-60
2022/10/20 03:36:01;;;;;;;12.88;6.25;;;30.50;99.90;;;;;;5013881;28;20033;-60
2022/10/20 03:38:28;;;;;;;12.93;7.45;;;30.50;99.90;;;;;;5014008;28;20025;-62
2022/10/20 03:40:54;;;;;;;10.20;6.50;;;30.50;99.90;;;;;;5013963;28;20391;-57
2022/10/20 03:43:21;;;;;;;10.27;8.00;;;30.50;99.90;;;;;;5013737;28;20045;-60
2022/10/20 03:45:48;;;;;;;10.80;6.20;;;30.40;99.90;;;;;;5013770;28;20028;-59
2022/10/20 03:48:14;;;;;;;7.95;5.50;;;30.40;99.90;;;;;;5022321;28;20463;-60
2022/10/20 03:50:42;;;;;;;6.78;5.50;;;30.30;99.90;;;;;;5021739;28;20013;-59
2022/10/20 03:53:13;;;;;;;16.40;7.55;;;30.30;99.90;;;;;;5020100;28;20486;-59
2022/10/20 03:55:39;;;;;;;11.85;7.95;;;30.40;99.90;;;;;;5021596;28;20026;-58
2022/10/20 03:58:06;;;;;;;13.02;9.25;;;30.50;99.90;;;;;;5021234;28;20021;-58
2022/10/20 04:00:32;;;;;;;11.13;8.18;;;30.40;99.90;;;;;;5023176;28;20029;-59
2022/10/20 04:02:59;;;;;;;14.48;9.13;;;30.30;99.90;;;;;;5022764;28;20487;-59
2022/10/20 04:05:25;;;;;;;18.73;8.20;;;30.40;99.90;;;;;;5021276;28;20160;-60
2022/10/20 04:07:52;;;;;;;12.30;8.85;;;30.30;99.90;;;;;;5023035;28;20115;-58
2022/10/20 04:10:18;;;;;;;16.38;8.75;;;30.40;99.90;;;;;;5022666;28;20095;-59
2022/10/20 04:12:45;;;;;;;13.82;8.45;;;30.40;99.90;;;;;;5020223;28;20026;-58
2022/10/20 04:15:12;;;;;;;15.73;9.02;;;30.50;99.90;;;;;;5022270;28;20434;-60
2022/10/20 04:17:38;;;;;;;21.10;12.70;;;30.60;99.90;;;;;;5022333;28;20014;-59
2022/10/20 04:20:06;;;;;;;23.70;19.17;;;30.70;99.90;;;;;;5020991;28;20032;-61
2022/10/20 04:22:32;;;;;;;15.63;10.57;;;30.80;99.90;;;;;;5022962;28;20013;-61
2022/10/20 04:24:59;;;;;;;11.07;8.63;;;30.70;99.90;;;;;;5022354;28;20029;-56
2022/10/20 04:27:26;;;;;;;11.25;8.77;;;30.70;99.90;;;;;;5021029;28;20033;-58
2022/10/20 04:29:53;;;;;;;15.13;9.93;;;30.50;99.90;;;;;;5022789;28;20422;-60
2022/10/20 04:32:19;;;;;;;15.13;9.65;;;30.60;99.90;;;;;;5018860;28;20072;-59
2022/10/20 04:34:46;;;;;;;15.18;9.38;;;30.60;99.90;;;;;;5022898;28;20029;-59
2022/10/20 04:37:12;;;;;;;10.23;9.13;;;30.60;99.90;;;;;;5021334;28;20088;-60
2022/10/20 04:39:39;;;;;;;14.77;9.80;;;30.60;99.90;;;;;;5021349;28;20100;-60
2022/10/20 04:42:05;;;;;;;13.65;8.88;;;30.60;99.90;;;;;;5023028;28;20601;-60
2022/10/20 04:44:32;;;;;;;20.65;13.15;;;30.70;99.90;;;;;;5021480;28;20037;-60
2022/10/20 04:46:58;;;;;;;14.93;10.27;;;30.80;99.90;;;;;;5021985;28;20049;-60
2022/10/20 04:49:25;;;;;;;16.60;11.52;;;30.80;99.90;;;;;;5023027;28;20018;-60
2022/10/20 04:51:51;;;;;;;17.27;9.60;;;30.90;99.90;;;;;;5018318;28;20069;-58
2022/10/20 04:54:18;;;;;;;19.30;9.77;;;31.00;99.90;;;;;;5021828;28;20029;-60
2022/10/20 04:56:45;;;;;;;13.75;9.52;;;31.10;99.90;;;;;;5022905;28;20014;-60
2022/10/20 04:59:11;;;;;;;15.50;10.15;;;31.10;99.90;;;;;;5019108;28;20022;-57
2022/10/20 05:01:38;;;;;;;21.02;11.25;;;31.20;99.90;;;;;;5011045;28;20022;-58
2022/10/20 05:04:05;;;;;;;13.85;10.02;;;31.30;99.90;;;;;;5003635;28;20029;-58
2022/10/20 05:06:32;;;;;;;16.23;10.30;;;31.40;99.90;;;;;;4996689;28;20117;-60
2022/10/20 05:09:02;;;;;;;16.00;11.00;;;31.30;99.90;;;;;;4996484;28;20026;-58
2022/10/20 05:11:30;;;;;;;16.60;10.85;;;31.20;99.90;;;;;;4995594;28;20052;-57
2022/10/20 05:13:57;;;;;;;14.63;11.15;;;31.20;99.90;;;;;;4995660;28;20118;-58
2022/10/20 05:16:24;;;;;;;13.73;10.30;;;31.30;99.90;;;;;;4995992;28;20030;-59
2022/10/20 05:18:52;;;;;;;17.08;11.52;;;31.30;99.90;;;;;;4993689;28;20054;-56
2022/10/20 05:21:21;;;;;;;15.07;10.73;;;31.30;99.90;;;;;;4993300;28;20026;-57
2022/10/20 05:23:48;;;;;;;15.98;10.98;;;31.40;99.90;;;;;;4994276;28;20220;-58
2022/10/20 05:26:16;;;;;;;16.25;11.38;;;31.40;99.90;;;;;;4996881;28;20093;-53
2022/10/20 05:28:46;;;;;;;18.50;12.65;;;31.40;99.90;;;;;;4996719;28;20026;-55
2022/10/20 05:31:13;;;;;;;16.42;11.65;;;31.50;99.90;;;;;;4997106;28;20046;-56
2022/10/20 05:33:45;;;;;;;16.65;12.32;;;31.50;99.90;;;;;;4999114;28;20018;-59
2022/10/20 05:36:14;;;;;;;13.00;11.35;;;31.60;99.90;;;;;;5005417;28;20483;-58
2022/10/20 05:38:41;;;;;;;14.38;12.25;;;31.70;99.90;;;;;;4996194;28;20030;-56
2022/10/20 05:41:11;;;;;;;19.77;12.95;;;31.90;99.90;;;;;;4996594;28;20387;-59
2022/10/20 05:43:39;;;;;;;19.48;11.95;;;31.90;99.90;;;;;;4996643;28;20022;-56
2022/10/20 05:46:06;;;;;;;17.23;12.27;;;32.00;99.90;;;;;;4996584;28;20468;-59
2022/10/20 05:48:33;;;;;;;17.35;12.93;;;31.90;99.90;;;;;;4996416;28;20030;-55
2022/10/20 05:51:05;;;;;;;15.55;12.23;;;31.80;99.90;;;;;;5016191;28;20401;-60
2022/10/20 05:53:31;;;;;;;16.95;13.80;;;31.70;99.90;;;;;;5024169;28;20022;-57
2022/10/20 05:56:04;;;;;;;19.85;13.20;;;31.70;99.90;;;;;;5025414;28;20029;-58
2022/10/20 05:58:31;;;;;;;20.05;14.63;;;31.60;99.90;;;;;;5025232;28;20450;-58
2022/10/20 06:01:03;;;;;;;28.92;18.88;;;31.50;99.90;;;;;;5022912;28;20026;-58
2022/10/20 06:03:29;;;;;;;16.88;13.10;;;31.60;99.90;;;;;;5024197;28;20017;-59
2022/10/20 06:05:58;;;;;;;18.10;12.77;;;31.50;99.90;;;;;;5025655;28;20029;-55
2022/10/20 06:08:27;;;;;;;18.00;13.18;;;31.50;99.90;;;;;;5024152;28;20114;-59
2022/10/20 06:10:54;;;;;;;23.38;16.40;;;31.50;99.90;;;;;;5025888;28;20168;-55
2022/10/20 06:13:20;;;;;;;18.50;13.82;;;31.50;99.90;;;;;;5021235;28;20025;-57
2022/10/20 06:15:48;;;;;;;19.38;12.35;;;31.50;99.90;;;;;;5026107;28;20057;-59
2022/10/20 06:18:14;;;;;;;21.95;14.73;;;31.40;99.90;;;;;;5023454;28;20163;-60
2022/10/20 06:20:41;;;;;;;52.13;17.17;;;31.40;99.90;;;;;;5035390;28;20033;-58
2022/10/20 06:23:07;;;;;;;51.72;23.10;;;31.20;99.90;;;;;;5017265;28;20022;-59
2022/10/20 06:25:34;;;;;;;46.78;22.52;;;31.00;99.90;;;;;;5015396;28;20032;-58
2022/10/20 06:28:00;;;;;;;32.35;20.50;;;30.30;99.90;;;;;;5022749;28;20079;-56
2022/10/20 06:30:27;;;;;;;39.40;20.20;;;29.90;99.90;;;;;;5020011;28;20290;-58
2022/10/20 06:32:54;;;;;;;35.58;20.08;;;30.10;99.90;;;;;;5015166;28;20113;-57
2022/10/20 06:35:21;;;;;;;23.42;17.95;;;30.20;99.90;;;;;;5014857;28;20030;-57
2022/10/20 06:37:47;;;;;;;23.83;15.98;;;30.30;99.90;;;;;;5015008;28;20080;-58
2022/10/20 06:40:14;;;;;;;19.15;15.55;;;30.10;99.90;;;;;;5008968;28;20538;-58
2022/10/20 06:42:40;;;;;;;32.20;17.27;;;30.10;99.90;;;;;;4999226;28;20046;-55
2022/10/20 06:45:07;;;;;;;22.70;17.05;;;30.00;99.90;;;;;;4995521;28;20034;-54
2022/10/20 06:47:34;;;;;;;32.55;18.05;;;29.90;99.90;;;;;;4995578;28;20476;-56
2022/10/20 06:50:00;;;;;;;32.85;20.00;;;29.70;99.90;;;;;;4995288;28;20018;-55
2022/10/20 06:52:27;;;;;;;26.45;18.15;;;29.60;99.90;;;;;;4995137;28;20085;-56
2022/10/20 06:54:53;;;;;;;25.02;19.65;;;29.50;99.90;;;;;;4994929;28;20048;-54
2022/10/20 06:57:20;;;;;;;25.90;18.90;;;29.40;99.90;;;;;;4995085;28;20053;-60
2022/10/20 06:59:47;;;;;;;24.65;18.45;;;29.30;99.90;;;;;;4995245;28;20069;-57
2022/10/20 07:02:14;;;;;;;25.45;17.00;;;29.10;99.90;;;;;;4994934;28;20022;-55
2022/10/20 07:04:40;;;;;;;35.38;20.15;;;28.60;99.90;;;;;;4995003;28;20083;-57
2022/10/20 07:07:07;;;;;;;35.08;20.75;;;28.00;99.90;;;;;;4994938;28;20034;-54
2022/10/20 07:09:33;;;;;;;30.52;21.17;;;27.80;99.90;;;;;;4994789;28;20068;-59
2022/10/20 07:12:01;;;;;;;30.85;19.95;;;27.80;99.90;;;;;;4994803;28;20038;-59
2022/10/20 07:14:27;;;;;;;31.83;22.30;;;28.00;99.90;;;;;;4994949;28;20046;-57
2022/10/20 07:16:54;;;;;;;30.17;21.23;;;28.10;99.90;;;;;;4999100;28;20471;-56
2022/10/20 07:19:20;;;;;;;25.48;20.10;;;28.20;99.90;;;;;;5016780;28;20029;-59
2022/10/20 07:21:47;;;;;;;29.92;18.98;;;28.30;99.90;;;;;;5015288;28;20029;-59
2022/10/20 07:24:15;;;;;;;25.15;18.92;;;28.40;99.90;;;;;;5024544;28;20487;-57
2022/10/20 07:26:42;;;;;;;24.75;19.10;;;28.40;99.90;;;;;;5023068;28;20034;-54
2022/10/20 07:29:10;;;;;;;18.83;14.60;;;28.40;99.90;;;;;;5030870;28;20379;-56
2022/10/20 07:31:39;;;;;;;18.13;13.57;;;28.50;99.90;;;;;;5021160;28;20446;-56
2022/10/20 07:34:07;;;;;;;12.30;10.40;;;28.50;99.90;;;;;;5021895;28;20541;-57
2022/10/20 07:36:35;;;;;;;15.25;11.02;;;28.40;99.90;;;;;;5021659;28;20125;-59
2022/10/20 07:39:03;;;;;;;15.93;11.93;;;28.30;99.90;;;;;;5024937;28;20093;-59
2022/10/20 07:41:30;;;;;;;17.15;13.30;;;28.40;99.90;;;;;;5026238;28;20014;-56
2022/10/20 07:43:58;;;;;;;21.17;14.65;;;28.50;99.90;;;;;;5024634;28;20041;-59
2022/10/20 07:46:25;;;;;;;21.73;14.63;;;28.50;99.90;;;;;;5024040;28;20024;-60
2022/10/20 07:48:51;;;;;;;18.90;14.93;;;28.60;99.90;;;;;;5023705;28;20074;-57
2022/10/20 07:51:33;;;;;;;22.05;16.63;;;28.60;99.90;;;;;;5024543;28;20041;-59
2022/10/20 07:54:02;;;;;;;21.15;16.00;;;28.70;99.90;;;;;;5023220;28;20022;-56
2022/10/20 07:56:31;;;;;;;26.35;20.60;;;28.80;99.90;;;;;;5024082;28;20116;-60
2022/10/20 07:58:58;;;;;;;35.15;20.77;;;28.90;99.90;;;;;;5025321;28;20017;-58
2022/10/20 08:01:25;;;;;;;24.17;20.70;;;28.90;99.90;;;;;;5025787;28;20646;-57
2022/10/20 08:03:51;;;;;;;26.42;21.30;;;28.90;99.90;;;;;;5023967;28;20017;-61
2022/10/20 08:06:18;;;;;;;22.63;17.63;;;28.90;99.90;;;;;;5024653;28;20018;-57
2022/10/20 08:08:44;;;;;;;20.23;15.55;;;28.80;99.90;;;;;;5025199;28;20021;-54
2022/10/20 08:11:11;;;;;;;18.42;14.98;;;28.80;99.90;;;;;;5022383;28;20026;-58
2022/10/20 08:13:39;;;;;;;20.92;16.17;;;28.90;99.90;;;;;;5022400;28;20029;-57
2022/10/20 08:16:07;;;;;;;19.55;15.77;;;28.90;99.90;;;;;;5023085;28;20392;-60
2022/10/20 08:18:34;;;;;;;26.35;19.67;;;29.00;99.90;;;;;;5019057;28;20010;-55
2022/10/20 08:21:08;;;;;;;26.60;18.73;;;29.00;99.90;;;;;;5022191;28;20478;-57
2022/10/20 08:23:39;;;;;;;18.45;14.65;;;28.90;99.90;;;;;;5019160;28;20133;-54
2022/10/20 08:26:06;;;;;;;26.40;15.75;;;28.80;99.90;;;;;;5021283;28;20079;-55
2022/10/20 08:28:33;;;;;;;19.48;14.27;;;28.50;99.90;;;;;;5018467;28;20022;-58
2022/10/20 08:31:06;;;;;;;21.35;13.80;;;28.30;99.90;;;;;;5022138;28;20021;-59
2022/10/20 08:33:33;;;;;;;19.05;14.50;;;28.30;99.90;;;;;;5018500;28;20029;-58
2022/10/20 08:36:04;;;;;;;19.70;14.68;;;28.20;99.90;;;;;;5022273;28;20026;-60
2022/10/20 08:38:30;;;;;;;24.27;15.00;;;28.20;99.90;;;;;;5014379;28;20030;-54
2022/10/20 08:40:59;;;;;;;30.58;20.00;;;28.20;99.90;;;;;;5019451;28;20025;-55
2022/10/20 08:43:27;;;;;;;31.08;18.27;;;28.30;99.90;;;;;;5022775;28;20497;-59
2022/10/20 08:45:53;;;;;;;28.83;20.80;;;28.40;99.90;;;;;;5015205;28;20550;-56
2022/10/20 08:48:25;;;;;;;34.72;18.90;;;28.40;99.90;;;;;;5021538;28;20100;-55
2022/10/20 08:50:52;;;;;;;33.07;18.77;;;28.40;99.90;;;;;;5018694;28;20018;-55
2022/10/20 08:53:22;;;;;;;27.80;18.63;;;28.40;99.90;;;;;;5021648;28;20469;-55
2022/10/20 08:55:50;;;;;;;41.67;19.90;;;28.40;99.90;;;;;;5020879;28;20033;-55
2022/10/20 08:58:20;;;;;;;31.52;21.33;;;28.40;99.90;;;;;;5021877;28;20398;-55
2022/10/20 09:00:49;;;;;;;34.30;25.30;;;28.30;99.90;;;;;;5026379;28;20080;-56
2022/10/20 09:03:22;;;;;;;28.23;18.70;;;28.30;99.90;;;;;;5025431;28;20026;-56
2022/10/20 09:05:55;;;;;;;27.85;17.50;;;28.30;99.90;;;;;;5024545;28;20026;-60
2022/10/20 09:08:27;;;;;;;27.50;19.00;;;28.20;99.90;;;;;;5024910;28;20156;-56
2022/10/20 09:10:55;;;;;;;28.98;17.88;;;28.20;99.90;;;;;;5020763;28;20034;-55
2022/10/20 09:13:24;;;;;;;30.83;18.23;;;28.20;99.90;;;;;;5025829;28;20061;-55
2022/10/20 09:15:57;;;;;;;30.95;17.75;;;28.40;99.90;;;;;;5027877;28;20488;-57
2022/10/20 09:18:24;;;;;;;38.40;18.52;;;28.40;99.90;;;;;;5029653;28;20022;-55
2022/10/20 09:20:53;;;;;;;23.63;16.85;;;28.30;99.90;;;;;;5016455;28;20105;-56
2022/10/20 09:23:24;;;;;;;30.02;18.27;;;28.40;99.90;;;;;;5016513;28;20485;-56
2022/10/20 09:25:52;;;;;;;32.97;18.73;;;28.20;99.90;;;;;;5016572;28;20026;-59
2022/10/20 09:28:23;;;;;;;28.55;19.10;;;28.10;99.90;;;;;;5016421;28;20391;-54
2022/10/20 09:30:50;;;;;;;28.83;17.70;;;27.90;99.90;;;;;;5016326;28;20487;-57
2022/10/20 09:33:27;;;;;;;27.70;17.30;;;27.90;99.90;;;;;;5016500;28;20022;-61
2022/10/20 09:35:58;;;;;;;26.98;18.15;;;27.80;99.90;;;;;;5016226;28;20026;-57
2022/10/20 09:38:29;;;;;;;33.55;26.08;;;27.80;99.90;;;;;;5016381;28;20022;-58
2022/10/20 09:41:15;;;;;;;32.42;26.05;;;27.80;99.90;;;;;;5016381;28;20026;-60
2022/10/20 09:43:51;;;;;;;21.80;18.08;;;27.50;99.90;;;;;;5011328;28;20037;-61
2022/10/20 09:46:22;;;;;;;22.15;16.38;;;27.20;99.90;;;;;;5005232;28;20070;-58
2022/10/20 09:48:50;;;;;;;19.17;15.00;;;27.10;99.90;;;;;;4996504;28;20030;-62
2022/10/20 09:51:23;;;;;;;22.83;14.07;;;27.00;99.90;;;;;;4996404;28;20515;-58
2022/10/20 09:53:49;;;;;;;17.13;12.85;;;26.90;99.90;;;;;;4996175;28;20487;-57
2022/10/20 09:56:21;;;;;;;17.95;13.48;;;26.80;99.90;;;;;;4996434;28;20246;-59
2022/10/20 09:58:47;;;;;;;17.75;12.93;;;26.70;99.90;;;;;;4996591;28;20498;-59
2022/10/20 10:01:16;;;;;;;14.48;11.15;;;26.70;99.90;;;;;;4996050;28;20030;-58
2022/10/20 10:03:46;;;;;;;18.20;12.35;;;26.80;99.90;;;;;;4996398;28;20101;-57
2022/10/20 10:06:18;;;;;;;19.38;11.57;;;26.70;99.90;;;;;;4996186;28;20472;-59
2022/10/20 10:08:46;;;;;;;21.73;12.25;;;26.60;99.90;;;;;;4996155;28;20038;-61
2022/10/20 10:11:19;;;;;;;53.08;15.15;;;26.60;99.90;;;;;;4994996;28;20399;-59
2022/10/20 10:13:48;;;;;;;29.95;15.82;;;26.40;99.90;;;;;;4995387;28;20042;-62
2022/10/20 10:16:19;;;;;;;40.55;15.90;;;26.30;99.90;;;;;;4996637;28;20022;-60
2022/10/20 10:18:51;;;;;;;30.77;14.13;;;26.20;99.90;;;;;;5005801;28;20464;-62
2022/10/20 10:21:19;;;;;;;30.98;13.88;;;26.10;99.90;;;;;;4995763;28;20027;-61
2022/10/20 10:24:02;;;;;;;18.75;12.38;;;26.10;99.90;;;;;;4996110;28;20030;-61
2022/10/20 10:26:43;;;;;;;22.25;13.65;;;26.10;99.90;;;;;;4995712;28;20114;-59
2022/10/20 10:29:31;;;;;;;18.23;12.43;;;26.10;99.90;;;;;;4995875;28;20030;-59
2022/10/20 10:32:21;;;;;;;23.10;15.13;;;26.10;99.90;;;;;;4991591;28;20448;-59
2022/10/20 10:35:00;;;;;;;24.63;15.73;;;26.20;99.90;;;;;;4994544;28;20046;-61
2022/10/20 10:37:28;;;;;;;27.55;17.70;;;26.10;99.90;;;;;;5019778;28;20021;-58
2022/10/20 10:39:54;;;;;;;21.98;14.45;;;26.10;99.90;;;;;;5023038;28;20033;-59
2022/10/20 10:42:31;;;;;;;17.92;13.00;;;26.10;99.90;;;;;;5016953;28;20022;-61
2022/10/20 10:45:06;;;;;;;21.27;12.55;;;26.10;99.90;;;;;;5015335;28;20043;-59
2022/10/20 10:47:38;;;;;;;18.38;11.43;;;26.10;99.90;;;;;;5008630;28;20025;-63
2022/10/20 10:50:09;;;;;;;21.67;13.75;;;26.10;99.90;;;;;;4999161;28;20488;-62
2022/10/20 10:52:46;;;;;;;23.98;14.95;;;26.20;99.90;;;;;;4995264;28;20149;-59
2022/10/20 10:55:20;;;;;;;24.08;15.40;;;26.40;99.90;;;;;;4995544;28;20084;-61
2022/10/20 10:57:55;;;;;;;30.45;16.65;;;26.50;99.90;;;;;;4995380;28;20092;-58
2022/10/20 11:00:44;;;;;;;26.08;15.90;;;26.60;99.90;;;;;;4995558;28;20423;-59
2022/10/20 11:03:22;;;;;;;26.58;16.67;;;26.60;99.90;;;;;;4995072;28;20022;-62
2022/10/20 11:06:13;;;;;;;22.85;16.80;;;26.50;99.90;;;;;;4995659;28;20387;-60
2022/10/20 11:08:51;;;;;;;23.58;16.63;;;26.40;99.90;;;;;;4991480;28;20435;-60
2022/10/20 11:11:20;;;;;;;22.17;16.25;;;26.30;99.90;;;;;;4995075;28;20023;-58
2022/10/20 11:13:50;;;;;;;23.15;16.65;;;26.30;99.90;;;;;;4994685;28;20513;-59
2022/10/20 11:16:23;;;;;;;25.23;16.35;;;26.40;99.90;;;;;;4994948;28;20030;-58
2022/10/20 11:19:06;;;;;;;30.95;19.63;;;26.40;99.90;;;;;;4994761;28;20105;-63
2022/10/20 11:21:38;;;;;;;28.95;19.63;;;26.50;99.90;;;;;;5009573;28;20030;-60
2022/10/20 11:24:27;;;;;;;22.30;17.77;;;26.50;99.90;;;;;;5022020;28;20022;-60
2022/10/20 11:27:03;;;;;;;28.10;20.05;;;26.60;99.90;;;;;;5000776;28;20029;-63
2022/10/20 11:29:39;;;;;;;27.73;18.23;;;26.50;99.90;;;;;;5024696;28;20022;-59
2022/10/20 11:32:11;;;;;;;26.52;18.08;;;26.50;99.90;;;;;;5034101;28;20020;-60
2022/10/20 11:34:45;;;;;;;14.95;10.73;;;26.40;99.90;;;;;;5033847;28;20052;-60
2022/10/20 11:37:19;;;;;;;16.67;8.70;;;26.30;99.90;;;;;;5033873;28;20029;-60
2022/10/20 11:39:52;;;;;;;14.50;8.40;;;26.20;99.90;;;;;;5033891;28;20045;-66
2022/10/20 11:42:25;;;;;;;12.35;6.53;;;26.20;99.90;;;;;;5033574;28;20076;-59
2022/10/20 11:44:54;;;;;;;12.55;6.78;;;26.40;99.90;;;;;;5027412;28;20054;-61
2022/10/20 11:47:40;;;;;;;8.50;6.28;;;26.40;99.90;;;;;;5024120;28;20025;-63
2022/10/20 11:50:10;;;;;;;13.82;5.75;;;26.30;99.90;;;;;;5025712;28;20048;-59
2022/10/20 11:52:41;;;;;;;10.55;5.95;;;26.20;99.90;;;;;;5017927;28;20057;-60
2022/10/20 11:55:11;;;;;;;10.38;5.32;;;26.20;99.90;;;;;;5018468;28;20022;-59
2022/10/20 11:57:41;;;;;;;8.90;5.38;;;26.20;99.90;;;;;;5019880;28;20032;-59
2022/10/20 12:00:08;;;;;;;9.77;5.38;;;26.20;99.90;;;;;;5025605;28;20028;-60
2022/10/20 12:02:37;;;;;;;13.27;5.47;;;26.10;99.90;;;;;;5020163;28;20067;-60
2022/10/20 12:05:19;;;;;;;10.13;5.03;;;26.10;99.90;;;;;;5016243;28;20040;-59
2022/10/20 12:07:58;;;;;;;7.40;4.65;;;26.10;99.90;;;;;;5021350;28;20536;-59
2022/10/20 12:10:34;;;;;;;7.95;4.97;;;26.10;99.90;;;;;;5023535;28;20104;-59
2022/10/20 12:13:03;;;;;;;10.93;5.68;;;25.90;99.90;;;;;;5021966;28;20026;-59
2022/10/20 12:15:30;;;;;;;6.97;4.43;;;25.90;99.90;;;;;;5016229;28;20026;-60
2022/10/20 12:18:05;;;;;;;9.55;4.40;;;26.00;99.90;;;;;;5013591;28;20033;-60
2022/10/20 12:20:35;;;;;;;13.80;4.80;;;26.00;99.90;;;;;;5013600;28;20095;-60
2022/10/20 12:23:01;;;;;;;9.85;4.93;;;26.00;99.90;;;;;;5019299;28;20061;-58
2022/10/20 12:25:30;;;;;;;18.42;6.05;;;26.00;99.90;;;;;;5022441;28;20025;-58
2022/10/20 12:28:01;;;;;;;9.98;5.40;;;25.90;99.90;;;;;;5022998;28;20419;-59
2022/10/20 12:30:33;;;;;;;9.40;5.22;;;26.10;99.90;;;;;;5019896;28;20014;-55
2022/10/20 12:33:07;;;;;;;21.63;5.82;;;26.10;99.90;;;;;;5021070;28;20470;-64
2022/10/20 12:35:39;;;;;;;10.32;5.35;;;25.90;99.90;;;;;;5025132;28;20470;-58
2022/10/20 12:38:16;;;;;;;8.95;4.82;;;25.80;99.90;;;;;;5023084;28;20021;-59
2022/10/20 12:40:51;;;;;;;10.30;5.03;;;25.80;99.90;;;;;;5025165;28;20029;-65
2022/10/20 12:43:44;;;;;;;22.58;5.90;;;25.80;99.90;;;;;;5025015;28;20024;-60